Accueil
METAR-TAF:

METAR-TAF

Aéroports :

Newport, Vermont, États-Unis

latitude: 44-53-20N, longitude: 072-13-45W, altitude: 283 m

Observation

Le bulletin a été fait il y a 1 heure et 12 minutes, à 12:55 UTC
Vent 5 kt de ouest/nord-ouest
Température 8°C
Humidité 61%
Pression 1022 hPa
Visibilité: 16.1 km
Nuages épars à une hauteur de 3600 ft
Nuages épars à une hauteur de 4200 ft
Nuages fragmentés à une hauteur de 10000 ft

METAR: KEFK 011255Z AUTO 29005KT 10SM SCT036 SCT042 BKN100 08/01 A3017 RMK AO2 T00800012

Heure: 10:07 (14:07 UTC)


TAF: absent

Observations et prévisions météorologiques de plus de 4000 aéroports (messages METAR et TAF).

Les stations disponibles sont représentées par des disques jaunes et rouges sur la carte.

Passer la souris dessus pour voir le nom de la station.

Cliquer dessus pour voir les observations et prévisions météorologiques.

Pour changer de carte: cliquez sur les boutons verts avec une croix noire pour zoomer, sur le bouton vert avec un tiret pour effectuer un zoom arrière, ou sur les flèches vertes pour les cartes adjacentes.


METAR-TAF: